createdAt,value
2019-03-11T00:01:48.990Z,70.13
2019-03-11T00:04:23.137Z,69.68
2019-03-11T00:06:57.112Z,68.51
2019-03-11T00:09:30.440Z,66.76
2019-03-11T00:12:03.848Z,66.55
2019-03-11T00:14:37.172Z,66.19
2019-03-11T00:17:10.635Z,65.95
2019-03-11T00:19:43.966Z,65.39
2019-03-11T00:22:17.328Z,64.78
2019-03-11T00:24:50.652Z,63.62
2019-03-11T00:27:23.976Z,64.12
2019-03-11T00:29:57.365Z,62.93
2019-03-11T00:32:30.724Z,63.16
2019-03-11T00:35:05.303Z,63.51
2019-03-11T00:37:38.707Z,62.22
2019-03-11T00:40:14.365Z,61.88
2019-03-11T00:42:47.711Z,61.48
2019-03-11T00:45:21.127Z,62.10
2019-03-11T00:48:02.003Z,62.08
2019-03-11T00:50:29.663Z,61.68
2019-03-11T00:53:03.146Z,60.54
2019-03-11T00:55:36.428Z,59.90
2019-03-11T00:58:09.769Z,60.32
2019-03-11T01:00:43.530Z,60.14
2019-03-11T01:03:16.869Z,59.50
2019-03-11T01:05:50.281Z,59.27
2019-03-11T01:08:23.689Z,59.59
2019-03-11T01:10:57.024Z,59.87
2019-03-11T01:13:30.398Z,59.40
2019-03-11T01:16:03.761Z,59.47
2019-03-11T01:18:37.098Z,59.63
2019-03-11T01:21:10.421Z,59.55
2019-03-11T01:23:43.754Z,59.48
2019-03-11T01:26:17.077Z,59.57
2019-03-11T01:28:50.574Z,59.79
2019-03-11T01:31:23.930Z,60.17
2019-03-11T01:33:57.385Z,60.34
2019-03-11T01:36:30.713Z,60.17
2019-03-11T01:39:05.624Z,60.38
2019-03-11T01:41:38.934Z,60.17
2019-03-11T01:44:12.284Z,60.21
2019-03-11T01:46:45.612Z,60.31
2019-03-11T01:49:18.985Z,60.50
2019-03-11T01:51:52.315Z,60.39
2019-03-11T01:54:25.669Z,59.89
2019-03-11T01:56:59.042Z,60.14
2019-03-11T01:59:32.397Z,59.46
2019-03-11T02:02:05.791Z,59.69
2019-03-11T02:04:39.284Z,58.60
2019-03-11T02:07:12.617Z,58.65
2019-03-11T02:09:45.974Z,58.21
2019-03-11T02:12:19.437Z,58.34
2019-03-11T02:14:52.793Z,58.17
2019-03-11T02:17:26.149Z,58.30
2019-03-11T02:19:59.498Z,58.30
2019-03-11T02:22:32.845Z,57.47
2019-03-11T02:25:06.624Z,57.53
2019-03-11T02:27:39.983Z,58.61
2019-03-11T02:30:14.956Z,57.69
2019-03-11T02:32:48.305Z,57.36
2019-03-11T02:35:30.617Z,57.24
2019-03-11T02:38:03.964Z,56.79
2019-03-11T02:40:37.310Z,57.51
2019-03-11T02:43:10.649Z,57.05
2019-03-11T02:45:43.975Z,57.15
2019-03-11T02:48:17.403Z,56.88
2019-03-11T02:50:50.804Z,57.35
2019-03-11T02:53:24.295Z,57.31
2019-03-11T02:55:57.626Z,57.62
2019-03-11T02:58:30.985Z,57.62
2019-03-11T03:01:06.024Z,57.94
2019-03-11T03:03:46.577Z,57.67
2019-03-11T03:06:19.961Z,57.83
2019-03-11T03:08:53.291Z,57.95
2019-03-11T03:11:26.631Z,57.59
2019-03-11T03:13:59.973Z,57.21
2019-03-11T03:16:33.297Z,57.80
2019-03-11T03:19:06.731Z,57.44
2019-03-11T03:21:40.052Z,57.07
2019-03-11T03:24:13.467Z,57.44
2019-03-11T03:26:46.776Z,57.15
2019-03-11T03:29:20.254Z,57.45
2019-03-11T03:31:53.606Z,57.76
2019-03-11T03:34:26.939Z,57.78
2019-03-11T03:37:00.244Z,58.99
2019-03-11T03:39:33.742Z,58.19
2019-03-11T03:42:07.092Z,58.53
2019-03-11T03:44:43.624Z,58.64
2019-03-11T03:47:16.954Z,58.23
2019-03-11T03:49:50.319Z,58.32
2019-03-11T03:52:23.678Z,59.19
2019-03-11T03:54:57.107Z,59.18
2019-03-11T03:57:30.421Z,59.54
2019-03-11T04:00:05.604Z,58.86
2019-03-11T04:02:38.995Z,59.25
2019-03-11T04:05:13.064Z,59.37
2019-03-11T04:07:46.452Z,59.78
2019-03-11T04:10:20.331Z,59.80
2019-03-11T04:12:53.728Z,59.35
2019-03-11T04:15:27.148Z,59.76
2019-03-11T04:18:00.748Z,60.23
2019-03-11T04:20:34.151Z,60.96
2019-03-11T04:23:07.611Z,62.01
2019-03-11T04:25:40.961Z,63.42
2019-03-11T04:28:14.328Z,64.35
2019-03-11T04:30:47.688Z,65.00
2019-03-11T04:33:21.029Z,65.33
2019-03-11T04:35:54.457Z,65.68
2019-03-11T04:38:27.804Z,65.41
2019-03-11T04:41:01.145Z,65.86
2019-03-11T04:43:34.486Z,66.54
2019-03-11T04:46:07.818Z,67.77
2019-03-11T04:48:41.139Z,69.05
2019-03-11T04:51:14.481Z,70.63
2019-03-11T04:53:47.911Z,71.45
2019-03-11T04:56:21.247Z,72.09
2019-03-11T04:58:56.310Z,72.28
2019-03-11T05:01:29.672Z,72.93
2019-03-11T05:04:03.002Z,73.38
2019-03-11T05:06:36.356Z,74.02
2019-03-11T05:09:09.703Z,74.24
2019-03-11T05:11:43.149Z,74.81
2019-03-11T05:14:16.477Z,75.26
2019-03-11T05:16:49.829Z,75.82
2019-03-11T05:19:23.318Z,76.17
2019-03-11T05:21:56.744Z,76.23
2019-03-11T05:24:30.075Z,76.12
2019-03-11T05:27:03.431Z,76.54
2019-03-11T05:29:36.799Z,76.21
2019-03-11T05:32:10.131Z,76.11
2019-03-11T05:34:43.796Z,74.39
2019-03-11T05:37:17.335Z,73.99
2019-03-11T05:39:50.785Z,73.11
2019-03-11T05:42:24.141Z,73.86
2019-03-11T05:44:57.475Z,72.29
2019-03-11T05:47:30.859Z,69.64
2019-03-11T05:50:06.744Z,67.03
2019-03-11T05:52:40.222Z,66.90
2019-03-11T05:55:14.725Z,64.92
2019-03-11T05:57:48.093Z,64.74
2019-03-11T06:00:26.174Z,63.62
2019-03-11T06:02:59.716Z,63.87
2019-03-11T06:05:33.153Z,63.53
2019-03-11T06:08:06.513Z,63.31
2019-03-11T06:10:39.858Z,63.63
2019-03-11T06:13:13.200Z,63.82
2019-03-11T06:15:46.668Z,64.28
2019-03-11T06:18:21.631Z,63.67
2019-03-11T06:21:13.001Z,64.42
2019-03-11T06:23:46.432Z,64.19
2019-03-11T06:26:19.791Z,64.87
2019-03-11T06:28:53.238Z,63.51
2019-03-11T06:31:26.748Z,63.20
2019-03-11T06:34:00.111Z,62.60
2019-03-11T06:36:33.439Z,60.65
2019-03-11T06:39:07.429Z,60.65
2019-03-11T06:41:40.828Z,60.15
2019-03-11T06:44:14.169Z,59.10
2019-03-11T06:46:47.507Z,59.44
2019-03-11T06:49:20.871Z,59.12
2019-03-11T06:51:54.208Z,59.35
2019-03-11T06:54:27.559Z,58.91
2019-03-11T06:57:01.008Z,59.06
2019-03-11T06:59:34.355Z,57.99
2019-03-11T07:02:07.830Z,57.03
2019-03-11T07:04:41.188Z,56.39
2019-03-11T07:07:14.659Z,56.32
2019-03-11T07:09:48.077Z,54.56
2019-03-11T07:12:21.411Z,54.57
2019-03-11T07:14:54.814Z,54.30
2019-03-11T07:17:28.148Z,53.29
2019-03-11T07:20:01.468Z,53.35
2019-03-11T07:22:34.798Z,52.84
2019-03-11T07:25:09.357Z,52.49
2019-03-11T07:27:42.811Z,51.71
2019-03-11T07:30:17.263Z,52.31
2019-03-11T07:32:50.660Z,52.36
2019-03-11T07:35:24.115Z,53.13
2019-03-11T07:37:57.548Z,54.15
2019-03-11T07:40:30.931Z,52.66
2019-03-11T07:43:04.254Z,51.13
2019-03-11T07:45:37.702Z,53.87
2019-03-11T07:48:11.058Z,56.16
2019-03-11T07:50:44.398Z,56.81
2019-03-11T07:53:17.748Z,56.84
2019-03-11T07:55:51.091Z,56.85
2019-03-11T07:58:24.429Z,57.60
2019-03-11T08:00:57.784Z,57.05
2019-03-11T08:03:31.332Z,57.41
2019-03-11T08:06:04.722Z,55.88
2019-03-11T08:08:38.075Z,56.28
2019-03-11T08:11:12.280Z,55.30
2019-03-11T08:13:45.630Z,53.89
2019-03-11T08:16:19.016Z,53.88
2019-03-11T08:18:52.415Z,53.78
2019-03-11T08:21:25.847Z,54.10
2019-03-11T08:23:59.208Z,53.35
2019-03-11T08:26:32.598Z,53.91
2019-03-11T08:29:05.936Z,53.22
2019-03-11T08:31:39.251Z,52.63
2019-03-11T08:34:12.703Z,52.31
2019-03-11T08:36:46.106Z,52.96
2019-03-11T08:39:19.438Z,52.26
2019-03-11T08:41:52.905Z,52.60
2019-03-11T08:44:26.251Z,51.87
2019-03-11T08:46:59.634Z,51.25
2019-03-11T08:49:32.981Z,51.87
2019-03-11T08:52:06.311Z,50.27
2019-03-11T08:54:39.678Z,51.22
2019-03-11T08:57:13.026Z,51.30
2019-03-11T08:59:46.479Z,51.76
2019-03-11T09:02:19.998Z,50.60
2019-03-11T09:04:53.458Z,49.03
2019-03-11T09:07:26.782Z,48.28
2019-03-11T09:10:00.118Z,47.05
2019-03-11T09:12:33.651Z,44.71
2019-03-11T09:15:10.134Z,44.02
2019-03-11T09:17:43.620Z,43.13
2019-03-11T09:20:17.897Z,43.94
2019-03-11T09:22:51.213Z,44.93
2019-03-11T09:25:26.562Z,45.10
2019-03-11T09:27:59.921Z,45.61
2019-03-11T09:30:33.351Z,44.79
2019-03-11T09:33:08.425Z,44.84
2019-03-11T09:35:42.166Z,44.69
2019-03-11T09:38:15.527Z,44.60
2019-03-11T09:40:48.965Z,44.50
2019-03-11T09:43:22.306Z,44.51
2019-03-11T09:45:55.738Z,43.70
2019-03-11T09:48:29.090Z,44.44
2019-03-11T09:51:02.531Z,44.13
2019-03-11T09:53:35.855Z,43.69
2019-03-11T09:56:09.815Z,44.28
2019-03-11T09:58:43.165Z,44.14
2019-03-11T10:01:17.152Z,44.16
2019-03-11T10:03:50.591Z,44.27
2019-03-11T10:06:23.947Z,44.54
2019-03-11T10:08:57.282Z,45.04
2019-03-11T10:11:30.659Z,45.15
2019-03-11T10:14:04.051Z,45.02
2019-03-11T10:16:37.423Z,44.75
2019-03-11T10:19:10.774Z,44.94
2019-03-11T10:21:44.161Z,45.58
2019-03-11T10:24:17.600Z,45.61
2019-03-11T10:26:51.023Z,45.62
2019-03-11T10:29:24.357Z,45.22
2019-03-11T10:31:57.718Z,45.56
2019-03-11T10:34:31.260Z,44.28
2019-03-11T10:37:04.738Z,44.21
2019-03-11T10:39:38.089Z,44.28
2019-03-11T10:42:11.504Z,44.49
2019-03-11T10:44:45.177Z,43.16
2019-03-11T10:47:19.436Z,43.56
2019-03-11T10:49:52.745Z,44.56
2019-03-11T10:52:26.082Z,44.29
2019-03-11T10:54:59.442Z,43.78
2019-03-11T10:57:32.773Z,43.68
2019-03-11T11:00:09.290Z,43.79
2019-03-11T11:02:42.620Z,43.09
2019-03-11T11:05:16.276Z,43.51
2019-03-11T11:07:49.859Z,43.44
2019-03-11T11:10:23.317Z,42.63
2019-03-11T11:12:56.743Z,43.12
2019-03-11T11:15:31.562Z,42.77
2019-03-11T11:18:05.127Z,42.12
2019-03-11T11:20:38.482Z,42.36
2019-03-11T11:23:11.807Z,42.31
2019-03-11T11:25:45.169Z,42.25
2019-03-11T11:28:18.454Z,41.69
2019-03-11T11:30:51.745Z,42.58
2019-03-11T11:33:25.100Z,43.64
2019-03-11T11:35:58.406Z,44.05
2019-03-11T11:38:31.718Z,44.28
2019-03-11T11:41:05.114Z,44.09
2019-03-11T11:43:38.388Z,44.37
2019-03-11T11:46:11.712Z,44.27
2019-03-11T11:48:44.998Z,44.75
2019-03-11T11:51:18.294Z,44.34
2019-03-11T11:53:51.654Z,44.19
2019-03-11T11:56:25.001Z,44.61
2019-03-11T11:58:58.282Z,45.34
2019-03-11T12:01:31.580Z,45.20
2019-03-11T12:04:04.935Z,45.00
2019-03-11T12:06:38.261Z,44.60
2019-03-11T12:09:11.551Z,44.82
2019-03-11T12:11:44.876Z,44.68
2019-03-11T12:14:18.170Z,44.22
2019-03-11T12:16:51.537Z,45.51
2019-03-11T12:19:24.801Z,45.66
2019-03-11T12:21:58.102Z,45.85
2019-03-11T12:24:31.386Z,46.04
2019-03-11T12:27:04.767Z,44.22
2019-03-11T12:31:05.613Z,43.41
2019-03-11T12:33:39.878Z,43.99
2019-03-11T12:36:13.846Z,44.38
2019-03-11T12:38:47.155Z,43.57
2019-03-11T12:41:20.666Z,44.28
2019-03-11T12:43:54.091Z,43.42
2019-03-11T12:46:27.538Z,43.23
2019-03-11T12:49:00.883Z,43.06
2019-03-11T12:51:34.304Z,43.57
2019-03-11T12:54:07.828Z,44.25
2019-03-11T12:56:41.257Z,44.88
2019-03-11T12:59:14.694Z,45.19
2019-03-11T13:01:48.037Z,45.31
2019-03-11T13:04:21.403Z,45.38
2019-03-11T13:06:54.794Z,45.18
2019-03-11T13:09:28.149Z,44.99
2019-03-11T13:12:01.551Z,45.58
2019-03-11T13:14:34.942Z,45.63
2019-03-11T13:17:08.417Z,45.59
2019-03-11T13:19:41.901Z,45.09
2019-03-11T13:22:15.227Z,44.30
2019-03-11T13:24:48.677Z,43.90
2019-03-11T13:27:22.027Z,43.36
2019-03-11T13:29:55.446Z,43.48
2019-03-11T13:32:28.838Z,43.61
2019-03-11T13:35:02.273Z,43.46
2019-03-11T13:37:35.779Z,44.36
2019-03-11T13:40:10.881Z,44.49
2019-03-11T13:42:44.284Z,44.02
2019-03-11T13:45:18.549Z,44.30
2019-03-11T13:47:51.990Z,44.48
2019-03-11T13:50:25.367Z,44.14
2019-03-11T13:52:58.695Z,44.00
2019-03-11T13:55:32.067Z,43.50
2019-03-11T13:58:05.427Z,43.71
2019-03-11T14:00:38.800Z,43.76
2019-03-11T14:03:12.145Z,43.43
2019-03-11T14:05:45.524Z,43.67
2019-03-11T14:08:18.850Z,43.33
2019-03-11T14:10:52.212Z,43.72
2019-03-11T14:13:25.540Z,42.79
2019-03-11T14:15:58.970Z,43.08
2019-03-11T14:18:32.372Z,43.10
2019-03-11T14:21:05.927Z,42.36
2019-03-11T14:23:39.343Z,43.04
2019-03-11T14:26:12.917Z,42.56
2019-03-11T14:28:46.330Z,42.65
2019-03-11T14:31:19.681Z,42.03
2019-03-11T14:33:53.182Z,41.82
2019-03-11T14:36:26.685Z,41.60
2019-03-11T14:39:00.143Z,40.83
2019-03-11T14:41:33.536Z,41.50
2019-03-11T14:44:07.029Z,41.75
2019-03-11T14:46:40.426Z,42.36
2019-03-11T14:49:13.842Z,43.34
2019-03-11T14:51:47.383Z,43.47
2019-03-11T14:54:20.775Z,43.15
2019-03-11T14:56:54.197Z,43.93
2019-03-11T14:59:27.612Z,43.67
2019-03-11T15:02:01.055Z,43.83
2019-03-11T15:04:34.395Z,44.16
2019-03-11T15:07:07.897Z,43.80
2019-03-11T15:09:51.063Z,42.39
2019-03-11T15:12:16.405Z,41.78
2019-03-11T15:14:49.812Z,42.97
2019-03-11T15:17:23.172Z,48.24
2019-03-11T15:19:56.588Z,49.26
2019-03-11T15:22:30.040Z,49.42
2019-03-11T15:25:04.023Z,48.16
2019-03-11T15:27:37.467Z,47.98
2019-03-11T15:30:16.234Z,48.31
2019-03-11T15:32:49.775Z,47.21
2019-03-11T15:35:23.180Z,46.65
2019-03-11T15:37:56.883Z,47.27
2019-03-11T15:40:30.275Z,46.54
2019-03-11T15:43:03.613Z,46.48
2019-03-11T15:45:38.995Z,46.62
2019-03-11T15:48:13.214Z,45.74
2019-03-11T15:50:46.686Z,45.97
2019-03-11T15:53:20.079Z,45.45
2019-03-11T15:55:53.434Z,43.52
2019-03-11T15:58:26.800Z,43.67
2019-03-11T16:01:00.250Z,43.87
2019-03-11T16:03:36.512Z,44.20
2019-03-11T16:06:09.011Z,44.16
2019-03-11T16:08:42.444Z,44.05
2019-03-11T16:11:15.869Z,43.43
2019-03-11T16:13:49.258Z,43.61
2019-03-11T16:16:22.662Z,42.88
2019-03-11T16:18:56.276Z,41.65
2019-03-11T16:21:29.687Z,41.19
2019-03-11T16:24:03.172Z,41.37
2019-03-11T16:26:36.545Z,41.25
2019-03-11T16:29:09.883Z,41.66
2019-03-11T16:31:43.212Z,42.16
2019-03-11T16:34:16.647Z,42.38
2019-03-11T16:36:50.076Z,42.13
2019-03-11T16:39:23.423Z,43.30
2019-03-11T16:41:56.887Z,42.61
2019-03-11T16:44:30.286Z,43.37
2019-03-11T16:47:03.914Z,42.67
2019-03-11T16:49:37.291Z,42.64
2019-03-11T16:52:10.730Z,42.85
2019-03-11T16:54:44.067Z,42.29
2019-03-11T16:57:17.460Z,42.82
2019-03-11T16:59:50.789Z,43.20
2019-03-11T17:02:24.197Z,43.93
2019-03-11T17:04:57.521Z,43.77
2019-03-11T17:07:30.880Z,43.20
2019-03-11T17:10:06.753Z,43.68
2019-03-11T17:12:40.193Z,43.92
2019-03-11T17:15:13.848Z,45.47
2019-03-11T17:17:47.296Z,45.85
2019-03-11T17:20:20.722Z,45.86
2019-03-11T17:22:54.070Z,46.64
2019-03-11T17:25:27.438Z,47.21
2019-03-11T17:28:00.865Z,47.74
2019-03-11T17:30:34.356Z,48.11
2019-03-11T17:33:07.875Z,48.83
2019-03-11T17:35:41.284Z,49.69
2019-03-11T17:38:14.735Z,49.72
2019-03-11T17:40:48.144Z,49.78
2019-03-11T17:43:21.597Z,49.72
2019-03-11T17:45:55.012Z,49.72
2019-03-11T17:48:30.242Z,50.07
2019-03-11T17:51:03.654Z,50.29
2019-03-11T17:53:37.077Z,50.29
2019-03-11T17:56:10.530Z,50.52
2019-03-11T17:58:43.991Z,50.35
2019-03-11T18:01:17.542Z,50.98
2019-03-11T18:03:50.981Z,51.60
2019-03-11T18:06:24.335Z,51.95
2019-03-11T18:08:57.797Z,52.45
2019-03-11T18:11:31.245Z,52.74
2019-03-11T18:14:04.698Z,52.77
2019-03-11T18:16:38.110Z,52.89
2019-03-11T18:19:11.620Z,52.93
2019-03-11T18:21:45.069Z,53.09
2019-03-11T18:24:18.516Z,53.90
2019-03-11T18:26:51.963Z,53.57
2019-03-11T18:29:25.312Z,54.61
2019-03-11T18:32:02.155Z,55.36
2019-03-11T18:34:33.850Z,55.80
2019-03-11T18:37:07.350Z,56.22
2019-03-11T18:39:40.790Z,56.62
2019-03-11T18:42:24.935Z,56.62
2019-03-11T18:44:49.328Z,56.79
2019-03-11T18:47:22.729Z,56.74
2019-03-11T18:49:56.183Z,57.11
2019-03-11T18:52:29.554Z,57.07
2019-03-11T18:55:02.977Z,57.28
2019-03-11T18:57:36.480Z,57.55
2019-03-11T19:00:20.583Z,57.70
2019-03-11T19:02:54.113Z,57.99
2019-03-11T19:05:27.543Z,57.90
2019-03-11T19:08:00.997Z,58.14
2019-03-11T19:10:35.076Z,58.36
2019-03-11T19:13:09.607Z,58.65
2019-03-11T19:15:43.128Z,58.98
2019-03-11T19:18:16.453Z,59.37
2019-03-11T19:20:49.922Z,59.32
2019-03-11T19:23:23.362Z,59.75
2019-03-11T19:25:56.814Z,59.72
2019-03-11T19:28:30.328Z,59.93
2019-03-11T19:31:03.844Z,59.13
2019-03-11T19:33:37.282Z,59.03
2019-03-11T19:36:10.750Z,59.00
2019-03-11T19:38:44.282Z,58.75
2019-03-11T19:41:17.810Z,59.15
2019-03-11T19:43:51.404Z,58.96
2019-03-11T19:46:24.954Z,58.78
2019-03-11T19:48:58.478Z,59.35
2019-03-11T19:51:31.897Z,59.05
2019-03-11T19:54:05.385Z,59.52
2019-03-11T19:56:38.822Z,58.55
2019-03-11T19:59:12.202Z,58.89
2019-03-11T20:01:45.649Z,58.67
2019-03-11T20:04:19.093Z,58.70
2019-03-11T20:06:52.547Z,57.64
2019-03-11T20:09:26.142Z,57.07
2019-03-11T20:11:59.580Z,57.20
2019-03-11T20:14:33.024Z,57.59
2019-03-11T20:17:06.494Z,57.04
2019-03-11T20:19:39.928Z,57.20
2019-03-11T20:22:13.371Z,57.65
2019-03-11T20:24:46.781Z,57.62
2019-03-11T20:27:20.439Z,58.25
2019-03-11T20:29:53.892Z,58.23
2019-03-11T20:32:27.432Z,58.73
2019-03-11T20:35:00.998Z,59.16
2019-03-11T20:37:34.508Z,59.42
2019-03-11T20:40:10.460Z,59.43
2019-03-11T20:42:43.893Z,59.63
2019-03-11T20:45:18.410Z,59.95
2019-03-11T20:47:52.035Z,60.04
2019-03-11T20:50:25.556Z,60.50
2019-03-11T20:52:58.974Z,60.28
2019-03-11T20:55:34.110Z,60.78
2019-03-11T20:58:07.638Z,61.43
2019-03-11T21:00:41.109Z,61.72
2019-03-11T21:03:14.453Z,60.92
2019-03-11T21:05:50.240Z,61.00
2019-03-11T21:08:23.772Z,61.08
2019-03-11T21:10:57.142Z,61.38
2019-03-11T21:13:30.708Z,61.10
2019-03-11T21:16:04.289Z,61.38
2019-03-11T21:18:37.691Z,61.57
2019-03-11T21:21:11.237Z,61.67
2019-03-11T21:23:44.587Z,61.61
2019-03-11T21:26:18.018Z,61.89
2019-03-11T21:28:51.488Z,62.50
2019-03-11T21:31:24.954Z,62.40
2019-03-11T21:33:59.183Z,62.77
2019-03-11T21:36:32.900Z,61.91
2019-03-11T21:39:06.932Z,62.43
2019-03-11T21:41:40.548Z,62.71
2019-03-11T21:44:13.985Z,62.61
2019-03-11T21:46:47.531Z,62.99
2019-03-11T21:49:21.001Z,62.54
2019-03-11T21:51:54.493Z,62.84
2019-03-11T21:54:27.825Z,63.24
2019-03-11T21:57:01.176Z,62.35
2019-03-11T21:59:34.788Z,62.95
2019-03-11T22:02:08.131Z,63.21
2019-03-11T22:04:41.460Z,63.24
2019-03-11T22:07:14.825Z,63.32
2019-03-11T22:09:48.163Z,63.69
2019-03-11T22:12:21.595Z,63.79
2019-03-11T22:14:54.931Z,63.58
2019-03-11T22:17:28.376Z,63.75
2019-03-11T22:20:01.730Z,63.97
2019-03-11T22:22:35.073Z,63.66
2019-03-11T22:25:13.659Z,64.14
2019-03-11T22:27:47.141Z,63.28
2019-03-11T22:30:21.527Z,63.45
2019-03-11T22:32:54.879Z,63.88
2019-03-11T22:35:29.209Z,63.61
2019-03-11T22:38:02.590Z,63.79
2019-03-11T22:40:35.932Z,64.32
2019-03-11T22:43:09.301Z,64.61
2019-03-11T22:45:42.764Z,64.92
2019-03-11T22:48:16.076Z,64.58
2019-03-11T22:50:50.793Z,63.86
2019-03-11T22:53:24.230Z,63.51
2019-03-11T22:55:57.574Z,63.67
2019-03-11T22:58:31.000Z,63.85
2019-03-11T23:01:04.501Z,64.27
2019-03-11T23:03:37.890Z,64.01
2019-03-11T23:06:11.337Z,63.97
2019-03-11T23:08:44.667Z,64.21
2019-03-11T23:11:18.078Z,64.63
2019-03-11T23:13:51.481Z,64.48
2019-03-11T23:16:24.911Z,64.39
2019-03-11T23:18:58.317Z,64.32
2019-03-11T23:21:31.687Z,64.97
2019-03-11T23:24:05.013Z,64.95
2019-03-11T23:26:38.359Z,65.56
2019-03-11T23:29:11.772Z,65.53
2019-03-11T23:31:45.142Z,65.66
2019-03-11T23:34:18.479Z,65.77
2019-03-11T23:36:51.847Z,65.83
2019-03-11T23:39:25.318Z,66.21
2019-03-11T23:41:58.679Z,66.30
2019-03-11T23:44:32.054Z,66.37
2019-03-11T23:47:05.544Z,66.95
2019-03-11T23:49:38.875Z,67.11
2019-03-11T23:52:12.214Z,67.80
2019-03-11T23:54:45.575Z,68.62
2019-03-11T23:57:18.933Z,69.53
2019-03-11T23:59:52.342Z,70.13
